Time;durP1;ratioP1;P1;durP2;ratioP2;P2;SDS_P1;SDS_P2;PMS_P1;PMS_P2;Temp;Humidity;BMP_temperature;BMP_pressure;BME280_temperature;BME280_humidity;BME280_pressure;Samples;Min_cycle;Max_cycle;Signal;HPM_P1;HPM_P2
2022/12/09 00:01:14;;;;;;;41.00;19.27;;;0.40;99.90;;;;;;4998315;28;20223;-72
2022/12/09 00:03:41;;;;;;;41.50;19.07;;;0.40;99.90;;;;;;4998216;28;20724;-80
2022/12/09 00:06:15;;;;;;;40.50;18.60;;;0.50;99.90;;;;;;5014257;28;20242;-76
2022/12/09 00:08:42;;;;;;;40.47;19.80;;;0.40;99.90;;;;;;4998267;28;20208;-73
2022/12/09 00:11:09;;;;;;;39.63;19.57;;;0.50;99.90;;;;;;4997940;28;20199;-74
2022/12/09 00:13:37;;;;;;;40.90;19.97;;;0.50;99.90;;;;;;5015603;28;20220;-73
2022/12/09 00:16:06;;;;;;;35.83;18.57;;;0.50;99.90;;;;;;4997594;28;20207;-79
2022/12/09 00:18:34;;;;;;;40.80;20.00;;;0.50;99.90;;;;;;4998067;28;20215;-74
2022/12/09 00:21:23;;;;;;;37.10;18.90;;;0.50;99.90;;;;;;4997989;28;20297;-74
2022/12/09 00:23:51;;;;;;;42.40;19.07;;;0.50;99.90;;;;;;4997832;28;20238;-73
2022/12/09 00:26:22;;;;;;;38.80;19.07;;;0.50;99.90;;;;;;4997375;28;20191;-79
2022/12/09 00:28:51;;;;;;;40.60;19.33;;;0.40;99.90;;;;;;4995781;28;20653;-78
2022/12/09 00:31:26;;;;;;;41.07;19.63;;;0.40;99.90;;;;;;4994101;28;20199;-78
2022/12/09 00:33:59;;;;;;;39.90;18.53;;;0.40;99.90;;;;;;4997504;28;20260;-81
2022/12/09 00:36:29;;;;;;;44.30;20.93;;;0.40;99.90;;;;;;5015192;28;20268;-78
2022/12/09 00:39:01;;;;;;;37.50;18.27;;;0.40;99.90;;;;;;4994703;28;20247;-79
2022/12/09 00:41:28;;;;;;;40.13;18.93;;;0.40;99.90;;;;;;4978066;28;20646;-82
2022/12/09 00:43:56;;;;;;;40.80;20.50;;;0.40;99.90;;;;;;4996038;28;20553;-84
2022/12/09 00:46:31;;;;;;;39.13;19.83;;;0.50;99.90;;;;;;4997307;28;20203;-76
2022/12/09 00:49:03;;;;;;;38.33;19.07;;;0.40;99.90;;;;;;4981900;28;20210;-76
2022/12/09 00:51:30;;;;;;;40.23;19.83;;;0.40;99.90;;;;;;5013635;28;20199;-76
2022/12/09 00:53:57;;;;;;;43.43;21.10;;;0.50;99.90;;;;;;5009030;28;20199;-76
2022/12/09 00:56:27;;;;;;;41.37;20.00;;;0.30;99.90;;;;;;4994742;28;20692;-78
2022/12/09 00:58:59;;;;;;;43.50;20.60;;;0.40;99.90;;;;;;4995429;28;20218;-76
2022/12/09 01:01:33;;;;;;;39.87;18.80;;;0.40;99.90;;;;;;4974558;28;20688;-76
2022/12/09 01:04:01;;;;;;;43.10;19.80;;;0.40;99.90;;;;;;4974226;28;20220;-76
2022/12/09 01:06:29;;;;;;;42.13;20.97;;;0.30;99.90;;;;;;4975291;28;20655;-77
2022/12/09 01:08:56;;;;;;;40.43;18.97;;;0.30;99.90;;;;;;4974128;28;20203;-76
2022/12/09 01:11:27;;;;;;;40.63;20.17;;;0.30;99.90;;;;;;4974173;28;20239;-75
2022/12/09 01:13:59;;;;;;;39.63;19.43;;;0.30;99.90;;;;;;4975231;28;20209;-75
2022/12/09 01:16:29;;;;;;;41.67;20.23;;;0.30;99.90;;;;;;4958269;28;20194;-76
2022/12/09 01:18:59;;;;;;;40.33;20.03;;;0.30;99.90;;;;;;4973900;28;20252;-77
2022/12/09 01:21:33;;;;;;;39.67;20.07;;;0.20;99.90;;;;;;4975375;28;20251;-75
2022/12/09 01:24:09;;;;;;;40.13;20.37;;;0.30;99.90;;;;;;4980392;28;20217;-76
2022/12/09 01:26:37;;;;;;;37.60;19.00;;;0.30;99.90;;;;;;4974265;28;20224;-74
2022/12/09 01:29:05;;;;;;;43.20;20.33;;;0.20;99.90;;;;;;4973792;28;20208;-75
2022/12/09 01:31:32;;;;;;;47.60;20.40;;;0.20;99.90;;;;;;4971802;28;20197;-76
2022/12/09 01:34:00;;;;;;;41.73;20.20;;;0.30;99.90;;;;;;4993314;28;20242;-76
2022/12/09 01:36:29;;;;;;;43.07;21.13;;;0.40;99.90;;;;;;4993097;28;20209;-76
2022/12/09 01:38:58;;;;;;;37.33;19.50;;;0.30;99.90;;;;;;4993308;28;20241;-76
2022/12/09 01:41:27;;;;;;;45.57;20.93;;;0.30;99.90;;;;;;4994261;28;20197;-77
2022/12/09 01:44:30;;;;;;;44.03;20.10;;;0.30;99.90;;;;;;4993183;28;20641;-75
2022/12/09 01:47:01;;;;;;;40.17;20.40;;;0.20;99.90;;;;;;4920902;29;20212;-76
2022/12/09 01:49:41;;;;;;;42.33;19.20;;;0.30;99.90;;;;;;4937173;29;20205;-77
2022/12/09 01:52:16;;;;;;;41.53;20.03;;;0.20;99.90;;;;;;4937351;29;20202;-77
2022/12/09 01:54:45;;;;;;;40.40;19.50;;;0.30;99.90;;;;;;4936862;29;20268;-77
2022/12/09 01:57:14;;;;;;;42.23;20.03;;;0.30;99.90;;;;;;4953146;29;20204;-76
2022/12/09 01:59:41;;;;;;;41.40;20.20;;;0.30;99.90;;;;;;4936754;29;20321;-77
2022/12/09 02:02:18;;;;;;;39.43;19.53;;;0.40;99.90;;;;;;4926019;29;20248;-77
2022/12/09 02:04:48;;;;;;;39.63;19.43;;;0.30;99.90;;;;;;4937389;29;20252;-78
2022/12/09 02:07:26;;;;;;;38.93;19.70;;;0.30;99.90;;;;;;4952998;29;20299;-76
2022/12/09 02:09:53;;;;;;;41.23;20.00;;;0.30;99.90;;;;;;4936911;29;20235;-77
2022/12/09 02:12:45;;;;;;;40.23;19.90;;;0.30;99.90;;;;;;4952771;29;20235;-77
2022/12/09 02:15:15;;;;;;;37.60;19.20;;;0.30;99.90;;;;;;4936593;29;20698;-76
2022/12/09 02:17:45;;;;;;;39.10;20.03;;;0.20;99.90;;;;;;4936866;29;20204;-77
2022/12/09 02:20:24;;;;;;;37.70;19.23;;;0.30;99.90;;;;;;4952932;29;20222;-76
2022/12/09 02:23:10;;;;;;;40.90;19.73;;;0.30;99.90;;;;;;4977963;28;20562;-76
2022/12/09 02:25:48;;;;;;;40.13;19.87;;;0.20;99.90;;;;;;4976231;28;20484;-76
2022/12/09 02:28:40;;;;;;;37.37;18.37;;;0.30;99.90;;;;;;4993529;28;20188;-78
2022/12/09 02:31:16;;;;;;;39.93;19.40;;;0.30;99.90;;;;;;4991941;28;20199;-77
2022/12/09 02:34:17;;;;;;;40.80;19.47;;;0.40;99.90;;;;;;4993553;28;20282;-74
2022/12/09 02:36:51;;;;;;;38.93;18.80;;;0.30;99.90;;;;;;4993486;28;20195;-75
2022/12/09 02:39:28;;;;;;;39.10;18.90;;;0.30;99.90;;;;;;4975897;28;20216;-78
2022/12/09 02:41:58;;;;;;;40.83;20.07;;;0.30;99.90;;;;;;4976407;28;20545;-78
2022/12/09 02:44:26;;;;;;;39.90;20.10;;;0.20;99.90;;;;;;4976201;28;20196;-77
2022/12/09 02:46:54;;;;;;;42.60;20.17;;;0.30;99.90;;;;;;4975976;28;20661;-76
2022/12/09 02:49:24;;;;;;;42.37;20.40;;;0.20;99.90;;;;;;4975941;28;20662;-80
2022/12/09 02:51:52;;;;;;;40.60;19.97;;;0.10;99.90;;;;;;4992325;28;20671;-78
2022/12/09 02:54:22;;;;;;;43.00;20.37;;;0.10;99.90;;;;;;4993284;28;20208;-76
2022/12/09 02:56:56;;;;;;;43.17;19.33;;;0.00;99.90;;;;;;4992103;28;20199;-75
2022/12/09 02:59:23;;;;;;;38.80;19.60;;;0.10;99.90;;;;;;4976274;28;20234;-75
2022/12/09 03:02:03;;;;;;;41.53;19.83;;;0.20;99.90;;;;;;4975728;28;20760;-77
2022/12/09 03:04:31;;;;;;;42.57;20.83;;;0.10;99.90;;;;;;4991984;28;20196;-77
2022/12/09 03:07:31;;;;;;;43.17;20.40;;;0.10;99.90;;;;;;4975711;28;20205;-76
2022/12/09 03:10:11;;;;;;;40.67;20.33;;;0.10;99.90;;;;;;4936478;29;20211;-77
2022/12/09 03:12:45;;;;;;;40.93;19.40;;;0.10;99.90;;;;;;4936596;29;20317;-75
2022/12/09 03:15:16;;;;;;;43.80;21.07;;;0.10;99.90;;;;;;4952027;29;20256;-76
2022/12/09 03:17:44;;;;;;;44.17;20.53;;;0.10;99.90;;;;;;4936345;29;20230;-76
2022/12/09 03:20:16;;;;;;;44.47;19.87;;;0.10;99.90;;;;;;4936243;29;20270;-77
2022/12/09 03:22:48;;;;;;;42.40;20.63;;;0.10;99.90;;;;;;4936284;29;20208;-76
2022/12/09 03:25:33;;;;;;;44.07;21.27;;;0.00;99.90;;;;;;4935659;29;20234;-76
2022/12/09 03:28:10;;;;;;;43.83;21.23;;;0.00;99.90;;;;;;4932674;29;20210;-81
2022/12/09 03:30:40;;;;;;;43.97;20.07;;;0.00;99.90;;;;;;4936484;29;20682;-77
2022/12/09 03:33:08;;;;;;;45.23;21.10;;;0.10;99.90;;;;;;4953783;28;20291;-81
2022/12/09 03:35:41;;;;;;;41.10;21.30;;;0.10;99.90;;;;;;4939906;29;20304;-78
2022/12/09 03:38:15;;;;;;;39.60;20.50;;;0.10;99.90;;;;;;4939722;29;20233;-79
2022/12/09 03:40:45;;;;;;;42.83;20.87;;;0.10;99.90;;;;;;4939718;29;20222;-77
2022/12/09 03:43:23;;;;;;;42.97;21.07;;;0.10;99.90;;;;;;4955788;29;20204;-76
2022/12/09 03:46:06;;;;;;;43.03;21.27;;;0.10;99.90;;;;;;4945994;28;20216;-76
2022/12/09 03:48:35;;;;;;;40.93;20.03;;;0.00;99.90;;;;;;4995154;28;20207;-80
2022/12/09 03:51:11;;;;;;;40.87;21.27;;;0.10;99.90;;;;;;4968451;28;20201;-81
2022/12/09 03:53:43;;;;;;;41.90;21.07;;;0.10;99.90;;;;;;4944121;28;20211;-80
2022/12/09 03:56:20;;;;;;;46.93;22.07;;;0.10;99.90;;;;;;4943445;28;20223;-79
2022/12/09 03:58:52;;;;;;;46.67;22.03;;;0.10;99.90;;;;;;4960001;28;20205;-78
2022/12/09 04:01:22;;;;;;;43.27;20.53;;;0.00;99.90;;;;;;4945091;28;20256;-80
2022/12/09 04:03:52;;;;;;;43.27;20.80;;;0.20;99.90;;;;;;4979085;28;20546;-78
2022/12/09 04:06:21;;;;;;;43.90;20.47;;;0.00;99.90;;;;;;4996119;28;20537;-80
2022/12/09 04:08:50;;;;;;;45.00;21.60;;;0.10;99.90;;;;;;4979184;28;20196;-78
2022/12/09 04:11:24;;;;;;;43.63;21.13;;;0.10;99.90;;;;;;4978434;28;20203;-80
2022/12/09 04:13:52;;;;;;;41.83;20.33;;;0.10;99.90;;;;;;4978929;28;20222;-80
2022/12/09 04:16:21;;;;;;;40.83;20.80;;;0.00;99.90;;;;;;4978713;28;20655;-81
2022/12/09 04:18:49;;;;;;;42.47;20.63;;;0.10;99.90;;;;;;4978630;28;20265;-80
2022/12/09 04:21:25;;;;;;;43.10;20.73;;;0.10;99.90;;;;;;4978380;28;20630;-81
2022/12/09 04:23:58;;;;;;;46.67;21.33;;;0.10;99.90;;;;;;4962395;28;20653;-80
2022/12/09 04:26:31;;;;;;;45.43;21.23;;;0.10;99.90;;;;;;4978310;28;20526;-81
2022/12/09 04:29:02;;;;;;;46.03;21.53;;;0.10;99.90;;;;;;4978742;28;20282;-76
2022/12/09 04:31:40;;;;;;;46.70;21.70;;;0.10;99.90;;;;;;4978354;28;20205;-80
2022/12/09 04:34:12;;;;;;;42.83;20.63;;;0.20;99.90;;;;;;4978371;28;20297;-80
2022/12/09 04:36:58;;;;;;;48.93;22.00;;;0.20;99.90;;;;;;4995430;28;20203;-77
2022/12/09 04:39:54;;;;;;;40.57;20.90;;;0.20;99.90;;;;;;4976186;28;20202;-77
2022/12/09 04:42:28;;;;;;;41.97;20.50;;;0.20;99.90;;;;;;4998424;28;20271;-77
2022/12/09 04:44:56;;;;;;;42.87;20.47;;;0.20;99.90;;;;;;4997231;28;20671;-81
2022/12/09 04:47:24;;;;;;;41.83;20.73;;;0.10;99.90;;;;;;4981213;28;20202;-77
2022/12/09 04:49:55;;;;;;;46.90;21.13;;;0.10;99.90;;;;;;4997083;28;20206;-81
2022/12/09 04:52:25;;;;;;;47.77;21.57;;;0.10;99.90;;;;;;4997396;28;20604;-79
2022/12/09 04:54:55;;;;;;;43.60;20.70;;;0.10;99.90;;;;;;5014886;28;20194;-81
2022/12/09 04:57:23;;;;;;;47.77;20.87;;;0.10;99.90;;;;;;4997580;28;20194;-79
2022/12/09 04:59:51;;;;;;;42.27;21.77;;;0.00;99.90;;;;;;5014643;28;20230;-76
2022/12/09 05:02:18;;;;;;;45.27;20.90;;;0.10;99.90;;;;;;5014554;28;20776;-78
2022/12/09 05:04:46;;;;;;;44.17;21.73;;;0.00;99.90;;;;;;5014637;28;20281;-76
2022/12/09 05:07:22;;;;;;;46.33;21.77;;;0.00;99.90;;;;;;4996854;28;20214;-77
2022/12/09 05:10:05;;;;;;;46.30;21.90;;;0.00;99.90;;;;;;5014532;28;20308;-77
2022/12/09 05:12:50;;;;;;;45.77;21.47;;;0.00;99.90;;;;;;5014529;28;20195;-77
2022/12/09 05:15:17;;;;;;;43.77;20.83;;;-0.10;99.90;;;;;;4997712;28;20321;-77
2022/12/09 05:17:49;;;;;;;48.60;22.17;;;0.00;99.90;;;;;;4994680;28;20657;-78
2022/12/09 05:20:17;;;;;;;46.23;22.23;;;0.00;99.90;;;;;;4968561;28;20226;-79
2022/12/09 05:22:45;;;;;;;46.97;22.33;;;0.00;99.90;;;;;;4977781;28;20221;-77
2022/12/09 05:25:21;;;;;;;45.23;21.37;;;0.00;99.90;;;;;;4979950;28;20232;-78
2022/12/09 05:27:55;;;;;;;45.87;22.13;;;0.10;99.90;;;;;;4997046;28;20256;-78
2022/12/09 05:30:23;;;;;;;44.40;21.37;;;0.00;99.90;;;;;;5014268;28;20554;-78
2022/12/09 05:33:01;;;;;;;48.90;22.20;;;0.00;99.90;;;;;;4996295;28;20660;-78
2022/12/09 05:35:33;;;;;;;46.47;22.23;;;-0.20;99.90;;;;;;4980228;28;20298;-77
2022/12/09 05:38:24;;;;;;;44.50;21.43;;;-0.20;99.90;;;;;;4982089;28;20290;-77
2022/12/09 05:41:01;;;;;;;48.23;22.57;;;-0.10;99.90;;;;;;4980175;28;20657;-79
2022/12/09 05:43:35;;;;;;;44.93;21.97;;;-0.20;99.90;;;;;;4996381;28;20239;-79
2022/12/09 05:46:38;;;;;;;48.27;21.97;;;-0.20;99.90;;;;;;5013674;28;20206;-77
2022/12/09 05:49:11;;;;;;;47.63;22.47;;;-0.20;99.90;;;;;;4953114;28;20679;-76
2022/12/09 05:51:51;;;;;;;51.03;23.03;;;-0.20;99.90;;;;;;4937351;29;20278;-77
2022/12/09 05:54:25;;;;;;;50.00;22.43;;;-0.10;99.90;;;;;;4953278;29;20750;-79
2022/12/09 05:57:02;;;;;;;48.23;22.93;;;-0.10;99.90;;;;;;4937004;29;20204;-79
2022/12/09 05:59:35;;;;;;;47.00;21.73;;;-0.10;99.90;;;;;;4921587;29;20240;-81
2022/12/09 06:02:02;;;;;;;46.50;22.47;;;0.00;99.90;;;;;;4921269;28;20231;-80
2022/12/09 06:04:42;;;;;;;50.53;22.67;;;0.00;99.90;;;;;;4937128;29;20209;-76
2022/12/09 06:07:13;;;;;;;51.40;23.30;;;-0.10;99.90;;;;;;4937877;29;20290;-77
2022/12/09 06:09:43;;;;;;;51.13;23.00;;;-0.10;99.90;;;;;;4952916;29;20199;-78
2022/12/09 06:12:14;;;;;;;46.77;21.47;;;-0.20;99.90;;;;;;4953095;28;20668;-78
2022/12/09 06:14:47;;;;;;;44.93;22.27;;;-0.20;99.90;;;;;;4937183;29;20303;-79
2022/12/09 06:17:19;;;;;;;51.50;22.80;;;-0.20;99.90;;;;;;4921587;28;20209;-79
2022/12/09 06:19:46;;;;;;;45.37;23.63;;;-0.20;99.90;;;;;;4936951;29;20240;-80
2022/12/09 06:22:22;;;;;;;45.97;22.00;;;-0.10;99.90;;;;;;4936824;29;20205;-77
2022/12/09 06:24:50;;;;;;;48.07;22.80;;;-0.20;99.90;;;;;;4962944;28;20294;-78
2022/12/09 06:27:23;;;;;;;48.80;22.17;;;-0.30;99.90;;;;;;4992510;28;20203;-77
2022/12/09 06:29:50;;;;;;;44.97;22.50;;;-0.20;99.90;;;;;;4976810;28;20303;-78
2022/12/09 06:32:19;;;;;;;49.93;22.23;;;-0.10;99.90;;;;;;4993387;28;20193;-79
2022/12/09 06:34:47;;;;;;;44.03;21.83;;;-0.20;99.90;;;;;;4991570;28;20207;-76
2022/12/09 06:37:17;;;;;;;48.77;23.67;;;-0.20;99.90;;;;;;4992422;28;20231;-75
2022/12/09 06:39:46;;;;;;;44.80;21.37;;;-0.10;99.90;;;;;;4993190;28;20239;-78
2022/12/09 06:42:28;;;;;;;46.27;22.27;;;-0.10;99.90;;;;;;4975646;28;20216;-79
2022/12/09 06:45:17;;;;;;;45.27;21.53;;;-0.10;99.90;;;;;;4974055;28;20250;-77
2022/12/09 06:48:06;;;;;;;44.13;21.67;;;-0.10;99.90;;;;;;4973815;28;20203;-76
2022/12/09 06:50:37;;;;;;;48.23;21.83;;;-0.10;99.90;;;;;;4974379;28;20622;-79
2022/12/09 06:53:11;;;;;;;45.80;21.57;;;-0.10;99.90;;;;;;4956553;28;20237;-76
2022/12/09 06:55:52;;;;;;;41.47;20.40;;;-0.10;99.90;;;;;;4993079;28;20188;-76
2022/12/09 06:58:59;;;;;;;44.83;21.57;;;0.00;99.90;;;;;;4992382;28;20195;-75
2022/12/09 07:01:26;;;;;;;46.70;21.97;;;-0.10;99.90;;;;;;4995855;28;20249;-74
2022/12/09 07:04:29;;;;;;;45.00;22.00;;;-0.10;99.90;;;;;;4995357;28;20210;-76
2022/12/09 07:07:34;;;;;;;50.17;21.23;;;-0.10;99.90;;;;;;5011798;28;20199;-75
2022/12/09 07:10:04;;;;;;;49.40;22.13;;;-0.10;99.90;;;;;;4971999;28;20228;-79
2022/12/09 07:12:31;;;;;;;47.93;21.97;;;-0.10;99.90;;;;;;4963246;28;20721;-78
2022/12/09 07:15:09;;;;;;;47.77;21.00;;;-0.10;99.90;;;;;;4979361;28;20259;-79
2022/12/09 07:17:46;;;;;;;50.27;22.00;;;-0.10;99.90;;;;;;4994882;28;20627;-79
2022/12/09 07:20:22;;;;;;;49.67;21.87;;;-0.10;99.90;;;;;;4963217;28;20229;-76
2022/12/09 07:22:50;;;;;;;47.40;21.40;;;0.00;99.90;;;;;;4996916;28;20184;-76
2022/12/09 07:25:28;;;;;;;49.60;22.30;;;0.00;99.90;;;;;;4979293;28;20316;-78
2022/12/09 07:27:57;;;;;;;49.97;23.00;;;-0.10;99.90;;;;;;4979647;28;20653;-79
2022/12/09 07:30:25;;;;;;;49.17;21.77;;;0.10;99.90;;;;;;4979132;28;20205;-79
2022/12/09 07:32:52;;;;;;;49.87;21.90;;;0.20;99.90;;;;;;4979575;28;20262;-80
2022/12/09 07:35:28;;;;;;;44.77;21.10;;;0.10;99.90;;;;;;4995730;28;20194;-76
2022/12/09 07:38:13;;;;;;;48.17;21.87;;;0.10;99.90;;;;;;5016301;28;20652;-77
2022/12/09 07:40:43;;;;;;;46.83;21.83;;;0.10;99.90;;;;;;4966693;28;20287;-79
2022/12/09 07:46:32;;;;;;;49.50;22.17;;;0.30;99.90;;;;;;4996067;28;20196;-79
2022/12/09 07:49:20;;;;;;;45.30;21.20;;;0.60;99.90;;;;;;4995290;28;20185;-79
2022/12/09 07:51:53;;;;;;;45.97;21.83;;;0.90;99.90;;;;;;4978909;28;20610;-79
2022/12/09 07:54:27;;;;;;;43.17;21.50;;;1.10;99.90;;;;;;4979285;28;20196;-78
2022/12/09 07:57:00;;;;;;;49.17;21.83;;;1.40;99.90;;;;;;4981841;28;20668;-76
2022/12/09 07:59:36;;;;;;;42.27;20.70;;;1.60;99.90;;;;;;4978858;28;20193;-78
2022/12/09 08:02:09;;;;;;;43.57;22.07;;;1.80;99.90;;;;;;5011462;28;20232;-77
2022/12/09 08:04:47;;;;;;;44.00;21.17;;;2.00;99.90;;;;;;4999598;28;20192;-77
2022/12/09 08:07:15;;;;;;;47.00;22.07;;;1.90;99.90;;;;;;4981605;28;20269;-76
2022/12/09 08:09:43;;;;;;;44.00;21.53;;;2.10;99.90;;;;;;4998386;28;20197;-78
2022/12/09 08:12:16;;;;;;;42.30;22.03;;;2.20;99.90;;;;;;4983912;28;20201;-77
2022/12/09 08:14:43;;;;;;;41.97;20.80;;;2.20;99.90;;;;;;5002671;28;20620;-77
2022/12/09 08:17:13;;;;;;;40.87;20.60;;;2.40;99.90;;;;;;4978549;28;20200;-77
2022/12/09 08:19:48;;;;;;;41.03;20.53;;;2.60;99.90;;;;;;5001084;28;20196;-76
2022/12/09 08:22:16;;;;;;;42.40;19.93;;;2.70;99.90;;;;;;5012589;28;20223;-75
2022/12/09 08:24:43;;;;;;;40.83;20.57;;;2.80;99.90;;;;;;4995595;28;20657;-80
2022/12/09 08:27:10;;;;;;;42.00;20.60;;;3.20;99.90;;;;;;4978266;28;20292;-80
2022/12/09 08:29:38;;;;;;;43.23;19.93;;;3.20;99.90;;;;;;4993943;28;20207;-82
2022/12/09 08:32:05;;;;;;;40.40;19.97;;;3.30;99.90;;;;;;4988018;28;20671;-80
2022/12/09 08:34:34;;;;;;;39.50;20.17;;;3.30;99.90;;;;;;4991061;28;20205;-81
2022/12/09 08:37:01;;;;;;;39.73;20.60;;;3.20;99.90;;;;;;4982804;28;20648;-81
2022/12/09 08:39:28;;;;;;;40.53;19.90;;;3.20;99.90;;;;;;5002934;28;20720;-77
2022/12/09 08:41:56;;;;;;;40.57;20.07;;;3.20;99.90;;;;;;5034507;28;20673;-79
2022/12/09 08:44:23;;;;;;;38.63;20.10;;;3.10;99.90;;;;;;5016617;28;20204;-78
2022/12/09 08:46:51;;;;;;;38.37;20.10;;;3.00;99.90;;;;;;5034331;28;20194;-80
2022/12/09 08:49:21;;;;;;;41.67;20.40;;;2.90;99.90;;;;;;5033093;28;20640;-78
2022/12/09 08:51:51;;;;;;;41.50;20.53;;;2.70;99.90;;;;;;5017071;28;20624;-74
2022/12/09 08:54:18;;;;;;;40.90;19.93;;;2.60;99.90;;;;;;5016886;28;20262;-76
2022/12/09 08:56:48;;;;;;;42.87;20.60;;;2.50;99.90;;;;;;5034267;28;20196;-77
2022/12/09 08:59:16;;;;;;;42.67;21.00;;;2.30;99.90;;;;;;5034445;28;20210;-76
2022/12/09 09:01:44;;;;;;;41.83;20.97;;;2.10;99.90;;;;;;5013063;28;20238;-80
2022/12/09 09:04:15;;;;;;;42.13;21.97;;;2.00;99.90;;;;;;5014517;28;20184;-75
2022/12/09 09:06:44;;;;;;;42.87;22.37;;;2.20;99.90;;;;;;5014799;28;20193;-80
2022/12/09 09:09:14;;;;;;;41.93;21.27;;;2.10;99.90;;;;;;5013380;28;20199;-74
2022/12/09 09:11:42;;;;;;;42.93;21.57;;;2.00;99.90;;;;;;5013321;28;20314;-77
2022/12/09 09:14:11;;;;;;;42.93;21.53;;;1.80;99.90;;;;;;5012966;28;20219;-76
2022/12/09 09:16:42;;;;;;;43.17;21.43;;;1.80;99.90;;;;;;5014154;28;20251;-76
2022/12/09 09:19:20;;;;;;;44.73;22.40;;;1.80;99.90;;;;;;5014328;28;20261;-75
2022/12/09 09:21:48;;;;;;;45.97;21.83;;;1.90;99.90;;;;;;5014623;28;20211;-76
2022/12/09 09:24:18;;;;;;;46.17;22.63;;;2.00;99.90;;;;;;5014375;28;20235;-74
2022/12/09 09:26:46;;;;;;;53.53;29.63;;;1.90;99.90;;;;;;5012863;28;20438;-74
2022/12/09 09:29:16;;;;;;;49.77;24.50;;;2.00;99.90;;;;;;5012744;28;20291;-75
2022/12/09 09:31:48;;;;;;;51.57;25.27;;;1.90;99.90;;;;;;5012307;28;20208;-75
2022/12/09 09:34:27;;;;;;;44.87;23.07;;;1.90;99.90;;;;;;5012687;28;20206;-77
2022/12/09 09:36:55;;;;;;;49.87;24.13;;;1.80;99.90;;;;;;5012629;28;20196;-78
2022/12/09 09:39:30;;;;;;;46.93;24.17;;;1.70;99.90;;;;;;5012684;28;20208;-76
2022/12/09 09:42:00;;;;;;;50.70;24.40;;;1.70;99.90;;;;;;5012737;28;20231;-76
2022/12/09 09:44:39;;;;;;;48.13;24.60;;;1.60;99.90;;;;;;5012172;28;20199;-75
2022/12/09 09:47:15;;;;;;;49.97;25.37;;;1.50;99.90;;;;;;5012766;28;20224;-75
2022/12/09 09:50:00;;;;;;;49.30;24.60;;;1.40;99.90;;;;;;5012761;28;20541;-76
2022/12/09 09:52:36;;;;;;;49.80;24.53;;;1.40;99.90;;;;;;4980391;28;20540;-77
2022/12/09 09:55:16;;;;;;;49.90;23.67;;;1.40;99.90;;;;;;4958027;28;20198;-77
2022/12/09 09:58:03;;;;;;;51.77;25.13;;;1.40;99.90;;;;;;4989433;28;20677;-76
2022/12/09 10:00:57;;;;;;;54.40;25.63;;;1.50;99.90;;;;;;4973463;28;20190;-79
2022/12/09 10:03:47;;;;;;;54.17;25.17;;;1.60;99.90;;;;;;4973006;28;20778;-77
2022/12/09 10:06:36;;;;;;;51.43;25.77;;;1.50;99.90;;;;;;4957859;28;20221;-78
2022/12/09 10:09:43;;;;;;;47.87;24.97;;;1.70;99.90;;;;;;4973305;28;20548;-78
2022/12/09 10:12:55;;;;;;;50.00;24.53;;;1.70;99.90;;;;;;4956467;28;20206;-79
2022/12/09 10:15:46;;;;;;;51.77;25.00;;;1.70;99.90;;;;;;4956883;28;20264;-77
2022/12/09 10:18:24;;;;;;;50.57;25.43;;;1.60;99.90;;;;;;4956120;28;20193;-76
2022/12/09 10:20:53;;;;;;;50.67;25.13;;;1.70;99.90;;;;;;4955954;28;20297;-75
2022/12/09 10:23:22;;;;;;;54.87;25.33;;;1.70;99.90;;;;;;4972205;28;20695;-76
2022/12/09 10:25:55;;;;;;;54.70;26.60;;;1.80;99.90;;;;;;4971723;28;20197;-77
2022/12/09 10:28:25;;;;;;;52.07;26.03;;;1.90;99.90;;;;;;4956013;28;20286;-75
2022/12/09 10:30:54;;;;;;;51.83;25.53;;;1.90;99.90;;;;;;4940172;28;20198;-76
2022/12/09 10:33:27;;;;;;;50.83;25.10;;;2.00;99.90;;;;;;4955973;28;20245;-76
2022/12/09 10:35:55;;;;;;;50.00;24.57;;;2.10;99.90;;;;;;4955878;28;20201;-76
2022/12/09 10:38:24;;;;;;;52.50;26.40;;;2.10;99.90;;;;;;4955662;28;20231;-79
2022/12/09 10:41:08;;;;;;;49.67;25.50;;;2.10;99.90;;;;;;4971833;28;20200;-77
2022/12/09 10:43:37;;;;;;;49.40;25.50;;;2.20;99.90;;;;;;4974476;28;20703;-79
2022/12/09 10:46:16;;;;;;;51.30;25.83;;;2.40;99.90;;;;;;4975738;28;20204;-81
2022/12/09 10:48:46;;;;;;;49.90;25.30;;;2.30;99.90;;;;;;4976876;28;20923;-80
2022/12/09 10:51:23;;;;;;;50.37;24.57;;;2.30;99.90;;;;;;4992710;28;20201;-76
2022/12/09 10:53:57;;;;;;;48.23;24.53;;;2.10;99.90;;;;;;4976690;28;20303;-78
2022/12/09 10:56:34;;;;;;;53.47;26.17;;;2.20;99.90;;;;;;4977879;28;20193;-78
2022/12/09 10:59:22;;;;;;;53.07;26.10;;;2.10;99.90;;;;;;4978127;28;20192;-79
2022/12/09 11:01:57;;;;;;;52.33;24.83;;;2.20;99.90;;;;;;4983855;28;20232;-77
2022/12/09 11:04:31;;;;;;;50.47;25.20;;;2.20;99.90;;;;;;4997106;28;20195;-79
2022/12/09 11:07:06;;;;;;;51.20;25.97;;;2.30;99.90;;;;;;4980160;28;20200;-79
2022/12/09 11:09:37;;;;;;;49.97;25.67;;;2.50;99.90;;;;;;4995873;28;20220;-80
2022/12/09 11:12:12;;;;;;;50.90;26.17;;;2.60;99.90;;;;;;4979556;28;20193;-79
2022/12/09 11:14:56;;;;;;;50.87;25.77;;;2.60;99.90;;;;;;4979323;28;20218;-80
2022/12/09 11:17:29;;;;;;;47.30;24.17;;;2.80;99.90;;;;;;5005968;28;20282;-76
2022/12/09 11:20:18;;;;;;;46.90;25.10;;;2.90;99.90;;;;;;4998120;28;20199;-84
2022/12/09 11:23:14;;;;;;;50.03;25.00;;;2.80;99.90;;;;;;4997068;28;20246;-80
2022/12/09 11:25:51;;;;;;;46.80;24.63;;;2.90;99.90;;;;;;4979306;28;20220;-77
2022/12/09 11:28:25;;;;;;;50.17;26.07;;;3.00;99.90;;;;;;4979418;28;20196;-73
2022/12/09 11:30:58;;;;;;;51.77;26.30;;;3.10;99.90;;;;;;4986168;28;20528;-71
2022/12/09 11:33:52;;;;;;;53.80;25.77;;;3.10;99.90;;;;;;5005762;28;20576;-80
2022/12/09 11:36:33;;;;;;;51.50;25.37;;;3.20;99.90;;;;;;5015053;28;20201;-71
2022/12/09 11:39:16;;;;;;;49.57;25.93;;;3.50;99.90;;;;;;4998389;28;20199;-76
2022/12/09 11:45:03;;;;;;;46.37;24.50;;;3.90;99.90;;;;;;5002041;28;20190;-81
2022/12/09 11:47:40;;;;;;;48.10;24.53;;;4.10;99.90;;;;;;4983350;28;20182;-84
2022/12/09 11:50:31;;;;;;;52.83;25.60;;;4.30;99.90;;;;;;4987286;28;20189;-83
2022/12/09 11:53:28;;;;;;;46.63;25.57;;;4.50;99.90;;;;;;5002665;28;20550;-83
2022/12/09 11:56:05;;;;;;;48.27;24.77;;;4.60;99.90;;;;;;5001697;28;20317;-77
2022/12/09 11:58:41;;;;;;;49.20;25.40;;;4.60;99.90;;;;;;4991929;28;20194;-78
2022/12/09 12:01:25;;;;;;;49.13;24.27;;;4.60;99.90;;;;;;4993733;28;20284;-82
2022/12/09 12:03:55;;;;;;;45.53;24.40;;;4.60;99.90;;;;;;4986079;28;20240;-83
2022/12/09 12:06:27;;;;;;;46.80;23.93;;;4.70;99.90;;;;;;4986009;28;20202;-82
2022/12/09 12:09:06;;;;;;;46.37;23.90;;;4.60;99.90;;;;;;5003919;28;20196;-75
2022/12/09 12:12:01;;;;;;;48.17;24.13;;;4.50;99.90;;;;;;4983294;28;20542;-72
2022/12/09 12:14:29;;;;;;;49.00;24.03;;;4.60;99.90;;;;;;4993037;28;20229;-75
2022/12/09 12:17:28;;;;;;;51.80;23.87;;;4.40;99.90;;;;;;4999309;28;20287;-75
2022/12/09 12:19:56;;;;;;;49.70;24.90;;;4.30;99.90;;;;;;4997228;28;20248;-75
2022/12/09 12:22:41;;;;;;;50.07;25.37;;;4.30;99.90;;;;;;4995384;28;20316;-75
2022/12/09 12:25:42;;;;;;;47.83;24.07;;;4.30;99.90;;;;;;4997842;28;20268;-77
2022/12/09 12:28:12;;;;;;;48.40;25.57;;;4.20;99.90;;;;;;4985272;28;20646;-74
2022/12/09 12:30:49;;;;;;;48.93;24.70;;;4.20;99.90;;;;;;4987483;28;20194;-74
2022/12/09 12:33:41;;;;;;;45.53;25.07;;;4.10;99.90;;;;;;5004742;28;20270;-75
2022/12/09 12:36:48;;;;;;;44.73;23.67;;;4.00;99.90;;;;;;5004707;28;20209;-74
2022/12/09 12:39:36;;;;;;;46.87;24.63;;;3.90;99.90;;;;;;4981131;28;20270;-79
2022/12/09 12:42:24;;;;;;;47.83;24.50;;;3.80;99.90;;;;;;5001797;28;20212;-78
2022/12/09 12:48:50;;;;;;;47.60;23.87;;;3.80;99.90;;;;;;4947164;28;20664;-76
2022/12/09 12:51:45;;;;;;;46.30;24.13;;;3.80;99.90;;;;;;4912500;29;20205;-79
2022/12/09 12:54:58;;;;;;;51.83;24.77;;;3.80;99.90;;;;;;4916212;29;20345;-77
2022/12/09 12:57:55;;;;;;;49.03;25.37;;;4.00;99.90;;;;;;4877808;29;20221;-76
2022/12/09 13:00:33;;;;;;;49.57;25.27;;;4.20;99.90;;;;;;4878007;29;20578;-83
2022/12/09 13:03:25;;;;;;;46.67;24.90;;;4.50;99.90;;;;;;4860612;29;20238;-78
2022/12/09 13:05:55;;;;;;;45.20;23.73;;;4.70;99.90;;;;;;4860433;29;21607;-77
2022/12/09 13:08:57;;;;;;;46.63;24.53;;;4.90;99.90;;;;;;4876040;29;20695;-82
2022/12/09 13:11:45;;;;;;;44.63;24.53;;;5.10;99.90;;;;;;4845046;29;20233;-82
2022/12/09 13:14:25;;;;;;;47.73;24.00;;;5.20;99.90;;;;;;4872858;29;20224;-82
2022/12/09 13:16:57;;;;;;;46.83;23.47;;;5.30;99.90;;;;;;4856393;29;20680;-77
2022/12/09 13:19:40;;;;;;;43.37;24.07;;;5.40;99.90;;;;;;4870792;29;20289;-80
2022/12/09 13:22:17;;;;;;;49.87;25.67;;;5.40;99.90;;;;;;4854201;29;20242;-78
2022/12/09 13:25:19;;;;;;;47.80;24.73;;;5.40;99.90;;;;;;4874703;29;20303;-86
2022/12/09 13:28:13;;;;;;;;;;;;;;;;;;;;;